createdAt,value
2019-01-30T00:00:04.134Z,78.57
2019-01-30T00:02:35.777Z,77.23
2019-01-30T00:05:07.638Z,82.87
2019-01-30T00:07:39.268Z,82.57
2019-01-30T00:10:11.108Z,91.70
2019-01-30T00:12:42.740Z,76.70
2019-01-30T00:15:14.581Z,86.63
2019-01-30T00:17:46.282Z,76.50
2019-01-30T00:20:17.945Z,74.93
2019-01-30T00:22:49.648Z,84.10
2019-01-30T00:25:23.878Z,81.50
2019-01-30T00:27:54.849Z,93.80
2019-01-30T00:30:26.699Z,82.00
2019-01-30T00:32:58.381Z,79.87
2019-01-30T00:35:30.011Z,82.97
2019-01-30T00:38:01.649Z,80.77
2019-01-30T00:40:37.159Z,84.53
2019-01-30T00:43:10.029Z,79.17
2019-01-30T00:45:41.677Z,88.17
2019-01-30T00:48:13.390Z,92.07
2019-01-30T00:50:45.124Z,81.63
2019-01-30T00:53:16.778Z,74.03
2019-01-30T00:55:48.608Z,83.00
2019-01-30T00:58:20.541Z,94.17
2019-01-30T01:00:52.265Z,75.77
2019-01-30T01:03:23.913Z,115.33
2019-01-30T01:05:55.645Z,92.50
2019-01-30T01:08:27.545Z,96.90
2019-01-30T01:10:59.183Z,94.50
2019-01-30T01:13:30.838Z,98.73
2019-01-30T01:16:02.463Z,98.97
2019-01-30T01:18:34.119Z,99.63
2019-01-30T01:21:05.740Z,80.10
2019-01-30T01:23:37.409Z,83.57
2019-01-30T01:26:09.042Z,95.57
2019-01-30T01:28:40.706Z,82.33
2019-01-30T01:31:12.364Z,84.13
2019-01-30T01:33:44.098Z,84.60
2019-01-30T01:36:15.709Z,113.13
2019-01-30T01:38:47.356Z,103.57
2019-01-30T01:41:18.998Z,102.43
2019-01-30T01:43:50.641Z,91.13
2019-01-30T01:46:22.287Z,92.30
2019-01-30T01:48:53.990Z,110.67
2019-01-30T01:51:25.611Z,102.53
2019-01-30T01:53:57.258Z,93.23
2019-01-30T01:56:28.882Z,86.23
2019-01-30T01:59:00.545Z,114.20
2019-01-30T02:01:32.170Z,109.53
2019-01-30T02:04:03.824Z,94.67
2019-01-30T02:06:35.465Z,96.70
2019-01-30T02:09:07.558Z,90.17
2019-01-30T02:11:39.184Z,96.43
2019-01-30T02:14:10.937Z,111.50
2019-01-30T02:16:42.578Z,97.10
2019-01-30T02:19:14.322Z,123.00
2019-01-30T02:21:45.950Z,115.60
2019-01-30T02:24:17.592Z,120.80
2019-01-30T02:26:49.213Z,111.30
2019-01-30T02:29:20.880Z,103.93
2019-01-30T02:31:52.533Z,105.93
2019-01-30T02:34:24.189Z,107.83
2019-01-30T02:36:55.852Z,107.37
2019-01-30T02:39:27.506Z,127.17
2019-01-30T02:41:59.137Z,128.47
2019-01-30T02:44:30.801Z,115.67
2019-01-30T02:47:02.439Z,108.53
2019-01-30T02:49:34.068Z,121.47
2019-01-30T02:52:05.808Z,125.97
2019-01-30T02:54:37.445Z,141.87
2019-01-30T02:57:09.076Z,109.13
2019-01-30T02:59:40.738Z,67.73
2019-01-30T03:02:17.566Z,95.83
2019-01-30T03:04:49.305Z,133.03
2019-01-30T03:07:20.926Z,124.17
2019-01-30T03:09:52.564Z,105.87
2019-01-30T03:12:24.194Z,113.23
2019-01-30T03:14:55.845Z,126.37
2019-01-30T03:17:27.458Z,109.97
2019-01-30T03:19:59.105Z,114.07
2019-01-30T03:22:30.716Z,104.07
2019-01-30T03:25:03.047Z,130.37
2019-01-30T03:27:34.672Z,103.57
2019-01-30T03:30:27.007Z,119.97
2019-01-30T03:32:59.010Z,135.33
2019-01-30T03:35:30.873Z,138.30
2019-01-30T03:38:02.605Z,156.13
2019-01-30T03:40:34.365Z,153.93
2019-01-30T03:43:05.995Z,132.33
2019-01-30T03:45:37.640Z,127.73
2019-01-30T03:48:09.270Z,138.43
2019-01-30T03:50:40.892Z,138.40
2019-01-30T03:53:12.513Z,126.90
2019-01-30T03:55:44.149Z,126.40
2019-01-30T03:58:15.772Z,119.67
2019-01-30T04:00:47.423Z,140.57
2019-01-30T04:03:19.041Z,117.33
2019-01-30T04:05:50.692Z,114.77
2019-01-30T04:08:22.317Z,128.53
2019-01-30T04:10:53.948Z,132.73
2019-01-30T04:13:25.567Z,129.80
2019-01-30T04:15:57.238Z,106.50
2019-01-30T04:18:28.856Z,110.83
2019-01-30T04:21:00.515Z,114.50
2019-01-30T04:23:32.130Z,106.93
2019-01-30T04:26:03.787Z,105.87
2019-01-30T04:28:35.414Z,107.80
2019-01-30T04:31:08.230Z,105.67
2019-01-30T04:33:39.862Z,125.20
2019-01-30T04:36:11.503Z,116.33
2019-01-30T04:38:43.124Z,109.07
2019-01-30T04:41:14.745Z,93.23
2019-01-30T04:43:46.371Z,112.77
2019-01-30T04:46:18.036Z,98.43
2019-01-30T04:48:49.702Z,118.10
2019-01-30T04:51:21.357Z,89.03
2019-01-30T04:53:53.004Z,100.17
2019-01-30T04:56:24.672Z,98.83
2019-01-30T04:58:56.292Z,87.97
2019-01-30T05:01:31.503Z,94.20
2019-01-30T05:04:03.284Z,88.43
2019-01-30T05:06:35.275Z,68.70
2019-01-30T05:09:07.857Z,75.07
2019-01-30T05:11:39.737Z,88.83
2019-01-30T05:14:11.371Z,91.93
2019-01-30T05:16:43.000Z,94.07
2019-01-30T05:19:14.630Z,96.43
2019-01-30T05:21:46.264Z,89.63
2019-01-30T05:24:17.879Z,103.27
2019-01-30T05:26:49.541Z,82.77
2019-01-30T05:29:21.178Z,101.17
2019-01-30T05:32:00.946Z,104.47
2019-01-30T05:34:26.362Z,105.83
2019-01-30T05:36:57.994Z,123.27
2019-01-30T05:39:29.641Z,104.80
2019-01-30T05:42:01.286Z,100.37
2019-01-30T05:44:32.916Z,117.30
2019-01-30T05:47:04.549Z,106.57
2019-01-30T05:49:39.320Z,114.57
2019-01-30T05:52:10.949Z,106.33
2019-01-30T05:54:42.569Z,97.87
2019-01-30T05:57:14.196Z,93.90
2019-01-30T05:59:45.924Z,79.93
2019-01-30T06:02:17.541Z,105.20
2019-01-30T06:04:49.165Z,70.70
2019-01-30T06:07:20.821Z,103.23
2019-01-30T06:09:52.460Z,83.57
2019-01-30T06:12:24.095Z,85.33
2019-01-30T06:14:55.721Z,81.10
2019-01-30T06:17:27.364Z,87.97
2019-01-30T06:19:58.984Z,71.60
2019-01-30T06:22:30.621Z,89.50
2019-01-30T06:25:02.243Z,74.57
2019-01-30T06:27:33.994Z,60.43
2019-01-30T06:30:07.337Z,82.27
2019-01-30T06:32:38.984Z,84.03
2019-01-30T06:35:10.977Z,76.07
2019-01-30T06:37:42.616Z,63.77
2019-01-30T06:40:16.789Z,64.13
2019-01-30T06:42:48.562Z,68.57
2019-01-30T06:45:20.292Z,72.43
2019-01-30T06:47:52.165Z,67.90
2019-01-30T06:50:23.892Z,55.47
2019-01-30T06:53:22.809Z,61.47
2019-01-30T06:55:46.101Z,60.33
2019-01-30T06:58:17.737Z,55.23
2019-01-30T07:00:49.470Z,47.20
2019-01-30T07:03:21.242Z,38.20
2019-01-30T07:05:52.884Z,46.87
2019-01-30T07:08:24.624Z,45.60
2019-01-30T07:10:56.277Z,46.70
2019-01-30T07:13:28.194Z,60.63
2019-01-30T07:15:59.821Z,48.53
2019-01-30T07:18:31.463Z,41.67
2019-01-30T07:21:03.287Z,40.67
2019-01-30T07:23:34.929Z,51.80
2019-01-30T07:26:06.560Z,41.83
2019-01-30T07:28:38.328Z,48.70
2019-01-30T07:31:10.041Z,40.87
2019-01-30T07:33:41.721Z,35.23
2019-01-30T07:36:13.348Z,31.83
2019-01-30T07:38:44.993Z,31.80
2019-01-30T07:41:16.634Z,34.70
2019-01-30T07:43:48.269Z,30.77
2019-01-30T07:46:19.905Z,29.87
2019-01-30T07:48:51.536Z,26.43
2019-01-30T07:51:23.158Z,22.87
2019-01-30T07:53:54.989Z,20.70
2019-01-30T07:56:28.919Z,18.10
2019-01-30T07:59:00.202Z,23.23
2019-01-30T08:01:35.445Z,25.40
2019-01-30T08:04:07.330Z,18.00
2019-01-30T08:06:39.044Z,20.50
2019-01-30T08:09:10.685Z,21.70
2019-01-30T08:11:42.412Z,21.80
2019-01-30T08:14:14.165Z,23.20
2019-01-30T08:16:47.922Z,16.33
2019-01-30T08:19:19.361Z,21.67
2019-01-30T08:21:51.027Z,26.23
2019-01-30T08:24:22.795Z,18.27
2019-01-30T08:26:54.908Z,19.30
2019-01-30T08:29:26.646Z,17.17
2019-01-30T08:31:58.332Z,21.80
2019-01-30T08:34:29.985Z,17.97
2019-01-30T08:37:01.605Z,20.30
2019-01-30T08:39:33.229Z,24.07
2019-01-30T08:42:04.853Z,21.27
2019-01-30T08:44:46.674Z,23.40
2019-01-30T08:47:10.005Z,18.70
2019-01-30T08:49:41.650Z,22.47
2019-01-30T08:52:13.264Z,24.63
2019-01-30T08:54:44.905Z,18.17
2019-01-30T08:57:16.538Z,21.07
2019-01-30T08:59:48.154Z,21.50
2019-01-30T09:02:21.128Z,18.87
2019-01-30T09:04:52.908Z,17.63
2019-01-30T09:07:24.526Z,20.47
2019-01-30T09:09:56.158Z,22.77
2019-01-30T09:12:27.768Z,22.37
2019-01-30T09:14:59.408Z,20.73
2019-01-30T09:17:31.034Z,26.80
2019-01-30T09:20:04.006Z,17.67
2019-01-30T09:22:35.629Z,22.53
2019-01-30T09:25:08.598Z,18.20
2019-01-30T09:27:40.213Z,21.30
2019-01-30T09:30:19.051Z,21.67
2019-01-30T09:32:50.986Z,24.20
2019-01-30T09:35:23.034Z,21.00
2019-01-30T09:37:54.889Z,24.30
2019-01-30T09:40:26.693Z,23.07
2019-01-30T09:42:58.355Z,18.73
2019-01-30T09:45:30.053Z,27.33
2019-01-30T09:48:01.674Z,28.47
2019-01-30T09:50:34.307Z,24.23
2019-01-30T09:53:06.270Z,27.17
2019-01-30T09:55:37.896Z,25.77
2019-01-30T09:58:09.610Z,21.20
2019-01-30T10:00:41.460Z,22.03
2019-01-30T10:03:13.090Z,23.60
2019-01-30T10:05:44.718Z,25.70
2019-01-30T10:08:16.351Z,21.83
2019-01-30T10:10:48.090Z,32.43
2019-01-30T10:13:19.730Z,25.30
2019-01-30T10:15:51.364Z,18.90
2019-01-30T10:18:22.985Z,20.60
2019-01-30T10:20:54.639Z,23.77
2019-01-30T10:23:26.264Z,24.93
2019-01-30T10:25:57.914Z,28.97
2019-01-30T10:28:29.552Z,18.13
2019-01-30T10:31:01.185Z,20.63
2019-01-30T10:33:32.839Z,21.43
2019-01-30T10:36:04.657Z,23.70
2019-01-30T10:38:36.329Z,21.63
2019-01-30T10:41:07.981Z,22.80
2019-01-30T10:43:39.608Z,17.47
2019-01-30T10:46:11.249Z,35.80
2019-01-30T10:48:42.870Z,13.70
2019-01-30T10:51:14.510Z,33.27
2019-01-30T10:53:48.125Z,27.80
2019-01-30T10:56:19.665Z,23.37
2019-01-30T10:58:51.281Z,19.80
2019-01-30T11:01:23.010Z,17.43
2019-01-30T11:03:57.429Z,17.70
2019-01-30T11:06:28.193Z,25.40
2019-01-30T11:08:59.822Z,21.60
2019-01-30T11:11:31.467Z,17.10
2019-01-30T11:14:03.586Z,16.03
2019-01-30T11:16:35.237Z,19.10
2019-01-30T11:19:06.865Z,21.30
2019-01-30T11:21:38.506Z,23.43
2019-01-30T11:24:10.142Z,15.07
2019-01-30T11:26:41.873Z,17.87
2019-01-30T11:29:13.492Z,17.43
2019-01-30T11:31:45.142Z,20.83
2019-01-30T11:34:16.897Z,21.90
2019-01-30T11:36:48.520Z,21.47
2019-01-30T11:39:20.145Z,34.00
2019-01-30T11:41:51.797Z,14.43
2019-01-30T11:44:23.436Z,26.77
2019-01-30T11:46:55.077Z,22.77
2019-01-30T11:49:26.695Z,23.83
2019-01-30T11:51:58.760Z,18.77
2019-01-30T11:54:38.697Z,29.40
2019-01-30T11:57:04.117Z,23.33
2019-01-30T11:59:35.741Z,21.73
2019-01-30T12:02:07.476Z,28.27
2019-01-30T12:04:39.105Z,22.80
2019-01-30T12:07:10.757Z,20.77
2019-01-30T12:09:42.388Z,19.13
2019-01-30T12:12:14.132Z,19.37
2019-01-30T12:14:45.777Z,24.23
2019-01-30T12:17:17.418Z,20.37
2019-01-30T12:19:49.069Z,23.70
2019-01-30T12:22:20.744Z,19.40
2019-01-30T12:24:52.389Z,24.13
2019-01-30T12:27:24.021Z,29.93
2019-01-30T12:29:55.636Z,20.43
2019-01-30T12:32:27.323Z,20.93
2019-01-30T12:34:58.986Z,23.57
2019-01-30T12:37:30.638Z,18.20
2019-01-30T12:40:03.673Z,22.27
2019-01-30T12:42:35.422Z,19.07
2019-01-30T12:45:12.010Z,25.27
2019-01-30T12:47:43.646Z,19.87
2019-01-30T12:51:04.415Z,19.67
2019-01-30T12:53:34.762Z,21.33
2019-01-30T12:56:06.142Z,18.27
2019-01-30T12:58:37.786Z,19.90
2019-01-30T13:01:09.514Z,19.83
2019-01-30T13:03:41.166Z,23.03
2019-01-30T13:06:12.809Z,19.97
2019-01-30T13:08:44.435Z,22.17
2019-01-30T13:11:16.076Z,30.23
2019-01-30T13:13:47.705Z,19.30
2019-01-30T13:16:19.325Z,23.20
2019-01-30T13:18:50.977Z,21.80
2019-01-30T13:21:22.601Z,32.23
2019-01-30T13:23:54.246Z,26.30
2019-01-30T13:26:25.865Z,28.10
2019-01-30T13:28:57.505Z,34.30
2019-01-30T13:31:29.143Z,26.93
2019-01-30T13:34:00.788Z,28.50
2019-01-30T13:36:32.425Z,31.40
2019-01-30T13:39:06.726Z,34.30
2019-01-30T13:41:38.362Z,34.40
2019-01-30T13:44:10.008Z,28.53
2019-01-30T13:46:41.643Z,27.90
2019-01-30T13:49:13.381Z,33.47
2019-01-30T13:51:45.012Z,34.33
2019-01-30T13:54:16.677Z,31.07
2019-01-30T13:56:48.331Z,25.70
2019-01-30T13:59:20.040Z,47.80
2019-01-30T14:01:51.661Z,42.03
2019-01-30T14:04:23.307Z,54.57
2019-01-30T14:06:54.933Z,27.90
2019-01-30T14:09:26.585Z,29.17
2019-01-30T14:11:58.217Z,42.57
2019-01-30T14:14:29.925Z,45.63
2019-01-30T14:17:01.549Z,37.33
2019-01-30T14:19:33.183Z,46.13
2019-01-30T14:22:04.815Z,32.90
2019-01-30T14:24:36.473Z,29.53
2019-01-30T14:27:08.165Z,31.17
2019-01-30T14:29:39.884Z,37.13
2019-01-30T14:32:11.553Z,53.23
2019-01-30T14:34:43.314Z,35.03
2019-01-30T14:37:15.030Z,42.07
2019-01-30T14:39:46.648Z,50.63
2019-01-30T14:42:18.385Z,51.00
2019-01-30T14:44:50.010Z,58.53
2019-01-30T14:47:21.637Z,54.90
2019-01-30T14:49:53.282Z,54.07
2019-01-30T14:52:24.906Z,47.00
2019-01-30T14:54:56.558Z,49.33
2019-01-30T14:57:28.188Z,40.97
2019-01-30T14:59:59.930Z,50.93
2019-01-30T15:02:31.790Z,57.40
2019-01-30T15:05:06.556Z,61.23
2019-01-30T15:07:38.196Z,62.53
2019-01-30T15:10:11.547Z,59.87
2019-01-30T15:12:43.323Z,48.13
2019-01-30T15:15:16.777Z,50.47
2019-01-30T15:17:48.423Z,54.90
2019-01-30T15:20:22.042Z,64.17
2019-01-30T15:22:54.410Z,65.33
2019-01-30T15:25:26.769Z,58.00
2019-01-30T15:27:59.305Z,55.47
2019-01-30T15:30:33.382Z,58.33
2019-01-30T15:33:05.332Z,44.73
2019-01-30T15:35:36.985Z,60.83
2019-01-30T15:38:10.238Z,63.43
2019-01-30T15:40:42.070Z,44.87
2019-01-30T15:43:13.711Z,57.03
2019-01-30T15:45:45.541Z,56.67
2019-01-30T15:48:17.265Z,53.47
2019-01-30T15:50:48.934Z,57.73
2019-01-30T15:53:22.028Z,74.83
2019-01-30T15:55:53.671Z,59.07
2019-01-30T15:58:25.621Z,49.70
2019-01-30T16:01:07.132Z,56.07
2019-01-30T16:03:38.761Z,56.13
2019-01-30T16:06:10.390Z,52.37
2019-01-30T16:08:42.008Z,58.10
2019-01-30T16:11:13.657Z,54.97
2019-01-30T16:13:45.296Z,50.67
2019-01-30T16:16:16.940Z,50.13
2019-01-30T16:18:48.567Z,51.33
2019-01-30T16:21:20.226Z,52.67
2019-01-30T16:23:51.861Z,48.00
2019-01-30T16:26:23.623Z,32.30
2019-01-30T16:28:55.243Z,51.87
2019-01-30T16:31:26.878Z,42.40
2019-01-30T16:33:58.511Z,43.67
2019-01-30T16:36:30.197Z,47.70
2019-01-30T16:39:02.321Z,42.07
2019-01-30T16:41:33.964Z,37.23
2019-01-30T16:44:05.817Z,40.00
2019-01-30T16:46:37.439Z,31.10
2019-01-30T16:49:09.077Z,38.73
2019-01-30T16:51:40.689Z,38.83
2019-01-30T16:54:12.330Z,42.90
2019-01-30T16:56:43.977Z,40.60
2019-01-30T16:59:15.617Z,39.33
2019-01-30T17:01:47.336Z,30.77
2019-01-30T17:04:18.981Z,41.27
2019-01-30T17:06:50.630Z,41.23
2019-01-30T17:09:22.305Z,31.57
2019-01-30T17:11:54.012Z,36.27
2019-01-30T17:14:25.630Z,31.73
2019-01-30T17:16:57.344Z,33.93
2019-01-30T17:19:28.981Z,28.67
2019-01-30T17:22:00.602Z,45.57
2019-01-30T17:24:32.237Z,37.13
2019-01-30T17:27:03.869Z,42.73
2019-01-30T17:29:35.498Z,32.33
2019-01-30T17:32:07.149Z,40.53
2019-01-30T17:34:38.932Z,33.93
2019-01-30T17:37:10.629Z,36.70
2019-01-30T17:39:42.274Z,35.73
2019-01-30T17:42:13.918Z,32.73
2019-01-30T17:44:45.557Z,30.60
2019-01-30T17:47:17.186Z,33.83
2019-01-30T17:49:48.820Z,28.77
2019-01-30T17:52:20.457Z,43.17
2019-01-30T17:54:52.087Z,34.40
2019-01-30T17:57:23.716Z,25.90
2019-01-30T17:59:55.352Z,28.27
2019-01-30T18:02:26.965Z,40.93
2019-01-30T18:04:59.322Z,36.43
2019-01-30T18:07:31.134Z,31.60
2019-01-30T18:10:04.550Z,39.20
2019-01-30T18:12:36.166Z,40.23
2019-01-30T18:15:08.610Z,28.97
2019-01-30T18:17:40.337Z,34.97
2019-01-30T18:20:13.520Z,29.30
2019-01-30T18:22:45.265Z,31.97
2019-01-30T18:25:17.111Z,37.80
2019-01-30T18:27:48.986Z,38.10
2019-01-30T18:30:20.637Z,31.97
2019-01-30T18:32:52.483Z,32.47
2019-01-30T18:35:24.129Z,37.30
2019-01-30T18:37:55.761Z,36.00
2019-01-30T18:40:27.429Z,35.67
2019-01-30T18:42:59.073Z,37.53
2019-01-30T18:45:30.711Z,37.93
2019-01-30T18:48:02.764Z,37.40
2019-01-30T18:50:34.548Z,28.63
2019-01-30T18:53:06.282Z,29.97
2019-01-30T18:55:37.900Z,34.97
2019-01-30T18:58:09.543Z,38.00
2019-01-30T19:00:42.442Z,44.63
2019-01-30T19:03:17.848Z,38.37
2019-01-30T19:05:49.626Z,40.73
2019-01-30T19:08:21.306Z,41.20
2019-01-30T19:10:53.002Z,39.80
2019-01-30T19:13:24.659Z,48.13
2019-01-30T19:15:56.367Z,37.50
2019-01-30T19:18:28.262Z,40.97
2019-01-30T19:20:59.926Z,45.47
2019-01-30T19:23:31.578Z,31.60
2019-01-30T19:26:03.694Z,37.83
2019-01-30T19:28:35.330Z,48.93
2019-01-30T19:31:07.014Z,45.43
2019-01-30T19:33:38.676Z,41.13
2019-01-30T19:36:10.609Z,55.40
2019-01-30T19:38:42.254Z,44.37
2019-01-30T19:41:13.920Z,45.73
2019-01-30T19:43:45.581Z,45.73
2019-01-30T19:46:17.260Z,47.37
2019-01-30T19:48:48.944Z,43.07
2019-01-30T19:51:20.617Z,44.93
2019-01-30T19:53:52.766Z,44.63
2019-01-30T19:56:24.430Z,49.00
2019-01-30T19:58:56.190Z,48.50
2019-01-30T20:01:36.019Z,42.30
2019-01-30T20:04:01.463Z,50.17
2019-01-30T20:06:33.233Z,55.33
2019-01-30T20:09:12.053Z,49.63
2019-01-30T20:11:43.819Z,48.07
2019-01-30T20:14:15.487Z,46.27
2019-01-30T20:16:47.766Z,54.90
2019-01-30T20:19:19.618Z,49.60
2019-01-30T20:21:51.990Z,46.80
2019-01-30T20:24:23.647Z,46.63
2019-01-30T20:26:55.349Z,52.77
2019-01-30T20:29:27.167Z,49.63
2019-01-30T20:31:58.939Z,63.30
2019-01-30T20:34:30.629Z,66.83
2019-01-30T20:37:02.317Z,56.70
2019-01-30T20:39:34.284Z,54.40
2019-01-30T20:42:06.072Z,62.03
2019-01-30T20:44:37.720Z,57.77
2019-01-30T20:47:09.419Z,60.13
2019-01-30T20:49:41.174Z,72.10
2019-01-30T20:52:12.861Z,55.60
2019-01-30T20:54:44.498Z,59.10
2019-01-30T20:57:16.177Z,62.93
2019-01-30T20:59:47.817Z,70.57
2019-01-30T21:02:19.499Z,79.17
2019-01-30T21:04:51.145Z,60.70
2019-01-30T21:07:22.842Z,67.33
2019-01-30T21:09:54.477Z,60.90
2019-01-30T21:12:26.161Z,70.33
2019-01-30T21:14:57.800Z,60.57
2019-01-30T21:17:29.465Z,62.30
2019-01-30T21:20:01.097Z,68.50
2019-01-30T21:22:33.011Z,68.47
2019-01-30T21:25:07.899Z,56.63
2019-01-30T21:27:39.673Z,69.83
2019-01-30T21:30:14.211Z,67.03
2019-01-30T21:32:45.965Z,73.10
2019-01-30T21:35:17.711Z,67.37
2019-01-30T21:37:49.433Z,65.13
2019-01-30T21:40:21.207Z,77.57
2019-01-30T21:42:52.885Z,70.60
2019-01-30T21:45:24.900Z,68.87
2019-01-30T21:47:56.549Z,78.10
2019-01-30T21:50:28.178Z,51.33
2019-01-30T21:52:59.933Z,68.17
2019-01-30T21:55:31.569Z,65.10
2019-01-30T21:58:03.708Z,78.37
2019-01-30T22:00:35.349Z,71.70
2019-01-30T22:03:07.118Z,79.10
2019-01-30T22:05:38.840Z,69.93
2019-01-30T22:08:10.746Z,77.30
2019-01-30T22:10:42.466Z,81.83
2019-01-30T22:13:14.096Z,75.57
2019-01-30T22:15:45.726Z,80.23
2019-01-30T22:18:17.379Z,65.60
2019-01-30T22:20:49.017Z,78.60
2019-01-30T22:23:20.658Z,66.37
2019-01-30T22:25:52.313Z,77.27
2019-01-30T22:28:23.953Z,76.40
2019-01-30T22:30:55.590Z,58.70
2019-01-30T22:33:27.273Z,80.67
2019-01-30T22:35:59.221Z,68.03
2019-01-30T22:38:31.156Z,81.80
2019-01-30T22:41:03.069Z,28.17
2019-01-30T22:43:34.709Z,70.77
2019-01-30T22:46:06.370Z,86.77
2019-01-30T22:48:38.017Z,80.67
2019-01-30T22:51:09.666Z,71.00
2019-01-30T22:53:41.316Z,74.70
2019-01-30T22:56:12.941Z,82.90
2019-01-30T22:58:44.589Z,54.03
2019-01-30T23:01:28.029Z,75.57
2019-01-30T23:04:16.626Z,82.00
2019-01-30T23:06:58.242Z,67.33
2019-01-30T23:10:12.413Z,78.90
2019-01-30T23:13:12.904Z,80.40
2019-01-30T23:16:16.062Z,67.07
2019-01-30T23:18:56.320Z,55.47
2019-01-30T23:21:33.377Z,73.60
2019-01-30T23:24:40.277Z,71.13
2019-01-30T23:27:34.161Z,72.73
2019-01-30T23:30:49.974Z,69.90
2019-01-30T23:33:34.293Z,77.27
2019-01-30T23:36:40.597Z,63.73
2019-01-30T23:39:37.819Z,70.57
2019-01-30T23:42:30.920Z,76.63
2019-01-30T23:45:31.762Z,79.40
2019-01-30T23:48:28.945Z,69.00
2019-01-30T23:51:38.527Z,61.13
2019-01-30T23:54:45.301Z,77.73
2019-01-30T23:57:45.060Z,72.03
